Time;durP1;ratioP1;P1;durP2;ratioP2;P2;SDS_P1;SDS_P2;PMS_P1;PMS_P2;Temp;Humidity;BMP_temperature;BMP_pressure;BME280_temperature;BME280_humidity;BME280_pressure;Samples;Min_cycle;Max_cycle;Signal;HPM_P1;HPM_P2
2023/06/17 00:00:36;;;;;;;19.25;10.32;;;;;;;17.50;48.10;101542.22;4992976;28;20026;-66
2023/06/17 00:03:02;;;;;;;20.27;11.05;;;;;;;17.45;49.13;101543.22;4992818;28;20034;-66
2023/06/17 00:05:27;;;;;;;18.60;10.48;;;;;;;17.49;48.50;101537.75;4992727;28;20022;-66
2023/06/17 00:07:53;;;;;;;18.55;10.30;;;;;;;17.48;47.80;101541.72;4992612;28;20027;-66
2023/06/17 00:10:18;;;;;;;19.65;10.23;;;;;;;17.46;48.66;101539.25;4992703;28;20023;-66
2023/06/17 00:12:43;;;;;;;19.80;10.43;;;;;;;17.39;49.01;101536.16;4992817;28;20058;-66
2023/06/17 00:15:10;;;;;;;20.33;11.02;;;;;;;17.33;49.94;101538.34;4992701;28;20034;-67
2023/06/17 00:17:36;;;;;;;19.77;10.77;;;;;;;17.31;49.54;101533.06;4992685;28;20042;-66
2023/06/17 00:20:11;;;;;;;20.20;10.60;;;;;;;17.15;50.26;101530.00;4992780;28;20053;-67
2023/06/17 00:22:36;;;;;;;19.23;10.85;;;;;;;17.12;50.20;101524.25;4992714;28;20022;-67
2023/06/17 00:25:02;;;;;;;19.58;10.80;;;;;;;17.06;50.84;101526.41;4992720;28;20034;-67
2023/06/17 00:27:28;;;;;;;19.20;11.18;;;;;;;17.04;50.45;101525.94;4992429;28;20023;-67
2023/06/17 00:29:53;;;;;;;19.25;10.80;;;;;;;17.04;49.99;101522.31;4992663;28;20022;-67
2023/06/17 00:32:19;;;;;;;20.80;11.10;;;;;;;17.03;50.85;101520.69;4992620;28;20369;-66
2023/06/17 00:34:44;;;;;;;21.00;12.00;;;;;;;16.96;51.26;101521.19;4994271;28;20042;-66
2023/06/17 00:37:09;;;;;;;21.75;11.32;;;;;;;16.88;51.58;101524.78;4996804;28;20144;-67
2023/06/17 00:39:35;;;;;;;19.40;11.00;;;;;;;16.78;52.31;101517.59;4996924;28;20035;-67
2023/06/17 00:42:00;;;;;;;19.67;11.63;;;;;;;16.76;52.20;101517.09;4996681;28;20033;-67
2023/06/17 00:44:26;;;;;;;20.55;10.90;;;;;;;16.75;51.41;101529.44;4995097;28;20034;-66
2023/06/17 00:46:53;;;;;;;19.92;10.93;;;;;;;16.76;52.26;101523.53;4996311;28;20031;-66
2023/06/17 00:49:19;;;;;;;21.90;11.70;;;;;;;16.69;53.10;101526.81;4996701;28;20026;-67
2023/06/17 00:51:44;;;;;;;21.02;11.80;;;;;;;16.67;52.99;101522.72;4996660;28;20113;-66
2023/06/17 00:54:12;;;;;;;20.83;11.07;;;;;;;16.58;53.14;101514.34;4996435;28;20117;-67
2023/06/17 00:56:39;;;;;;;21.85;11.60;;;;;;;16.53;53.92;101525.72;4994928;28;20081;-67
2023/06/17 00:59:05;;;;;;;22.80;11.52;;;;;;;16.50;53.70;101524.38;4996197;28;20442;-66
2023/06/17 01:01:35;;;;;;;21.77;11.98;;;;;;;16.47;53.62;101524.22;4996324;28;20034;-67
2023/06/17 01:04:02;;;;;;;21.27;12.25;;;;;;;16.41;54.51;101525.53;4996455;28;20085;-67
2023/06/17 01:06:45;;;;;;;21.25;12.05;;;;;;;16.35;54.42;101522.09;4996502;28;20062;-66
2023/06/17 01:09:16;;;;;;;20.17;12.18;;;;;;;16.26;54.91;101519.28;4996298;28;20061;-67
2023/06/17 01:11:44;;;;;;;22.77;12.43;;;;;;;16.25;55.54;101509.28;4996175;28;20026;-67
2023/06/17 01:14:10;;;;;;;20.50;11.88;;;;;;;16.18;55.95;101509.78;4996256;28;20048;-66
2023/06/17 01:16:41;;;;;;;20.77;12.10;;;;;;;16.23;55.79;101511.59;4996325;28;20038;-67
2023/06/17 01:19:18;;;;;;;21.65;12.55;;;;;;;16.13;56.03;101509.13;4996111;28;20451;-67
2023/06/17 01:21:48;;;;;;;24.80;13.27;;;;;;;16.12;56.33;101510.28;4995970;28;20414;-66
2023/06/17 01:24:29;;;;;;;22.42;13.00;;;;;;;16.03;56.56;101499.09;4996060;28;20487;-66
2023/06/17 01:26:57;;;;;;;21.98;13.15;;;;;;;16.08;56.13;101503.69;4995792;28;20057;-66
2023/06/17 01:29:23;;;;;;;22.92;13.80;;;;;;;16.00;57.24;101505.34;4996001;28;20105;-66
2023/06/17 01:31:57;;;;;;;25.38;15.88;;;;;;;15.93;57.17;101505.84;4995669;28;20042;-66
2023/06/17 01:34:31;;;;;;;22.77;15.23;;;;;;;15.85;57.23;101510.25;4995432;28;20386;-66
2023/06/17 01:36:57;;;;;;;23.88;13.73;;;;;;;15.87;57.01;101504.34;4995510;28;20050;-66
2023/06/17 01:39:25;;;;;;;22.95;14.57;;;;;;;15.83;58.05;101503.31;4995433;28;20034;-66
2023/06/17 01:41:53;;;;;;;22.60;14.18;;;;;;;15.76;58.59;101498.22;4995607;28;20049;-66
2023/06/17 01:44:20;;;;;;;22.10;14.68;;;;;;;15.71;58.55;101488.03;4995252;28;20505;-66
2023/06/17 01:46:46;;;;;;;24.15;14.85;;;;;;;15.71;58.91;101501.19;4994864;28;20057;-67
2023/06/17 01:49:11;;;;;;;23.08;14.25;;;;;;;15.57;59.41;101499.34;4995364;28;20066;-66
2023/06/17 01:51:37;;;;;;;22.80;15.02;;;;;;;15.54;59.59;101505.56;4993883;28;20104;-66
2023/06/17 01:54:02;;;;;;;23.88;14.43;;;;;;;15.47;59.84;101501.63;4995299;28;20443;-66
2023/06/17 01:56:28;;;;;;;23.83;14.55;;;;;;;15.47;59.18;101502.41;4995230;28;20501;-66
2023/06/17 01:58:54;;;;;;;22.52;13.65;;;;;;;15.43;60.10;101507.00;4993936;28;20470;-66
2023/06/17 02:01:19;;;;;;;24.02;13.98;;;;;;;15.40;60.34;101496.50;4995150;28;20113;-66
2023/06/17 02:03:44;;;;;;;22.95;14.50;;;;;;;15.44;59.89;101506.69;4994784;28;20084;-66
2023/06/17 02:06:10;;;;;;;22.35;14.50;;;;;;;15.49;59.68;101499.31;4995118;28;20034;-66
2023/06/17 02:08:37;;;;;;;22.92;14.02;;;;;;;15.48;59.43;101506.06;4994951;28;20038;-66
2023/06/17 02:11:02;;;;;;;24.88;14.23;;;;;;;15.51;59.16;101497.00;4994931;28;20030;-66
2023/06/17 02:13:28;;;;;;;23.10;14.23;;;;;;;15.47;58.75;101505.22;4994866;28;20069;-66
2023/06/17 02:15:53;;;;;;;22.27;14.15;;;;;;;15.49;58.71;101491.78;4994820;28;20113;-66
2023/06/17 02:18:18;;;;;;;21.70;13.90;;;;;;;15.49;58.32;101488.19;4993434;28;20501;-66
2023/06/17 02:20:45;;;;;;;23.65;14.25;;;;;;;15.44;59.39;101494.72;4994735;28;20127;-66
2023/06/17 02:23:10;;;;;;;24.75;14.10;;;;;;;15.35;60.60;101500.25;4993427;28;20033;-67
2023/06/17 02:25:39;;;;;;;24.35;14.27;;;;;;;15.26;60.98;101491.84;4994851;28;20030;-67
2023/06/17 02:28:05;;;;;;;24.23;15.05;;;;;;;15.17;61.56;101499.38;4994469;28;20101;-66
2023/06/17 02:30:30;;;;;;;22.45;14.63;;;;;;;15.03;62.54;101488.31;4994548;28;20030;-66
2023/06/17 02:32:55;;;;;;;23.77;14.68;;;;;;;14.95;62.86;101491.88;4994445;28;20164;-66
2023/06/17 02:35:20;;;;;;;22.83;14.40;;;;;;;14.86;62.38;101486.28;4994318;28;20038;-67
2023/06/17 02:37:46;;;;;;;22.77;14.68;;;;;;;14.78;63.12;101490.66;4994403;28;20036;-66
2023/06/17 02:40:11;;;;;;;22.33;14.88;;;;;;;14.71;63.92;101487.53;4994356;28;20022;-66
2023/06/17 02:42:37;;;;;;;23.10;14.43;;;;;;;14.77;63.27;101483.44;4994246;28;20022;-66
2023/06/17 02:45:03;;;;;;;22.65;14.23;;;;;;;14.82;61.75;101485.28;4994272;28;20026;-66
2023/06/17 02:47:28;;;;;;;23.17;14.90;;;;;;;14.82;62.67;101483.31;4993975;28;20034;-66
2023/06/17 02:49:53;;;;;;;22.63;14.88;;;;;;;14.80;62.55;101470.84;4993696;28;20038;-66
2023/06/17 02:52:18;;;;;;;25.02;16.20;;;;;;;14.79;64.19;101483.13;4994055;28;20026;-66
2023/06/17 02:54:44;;;;;;;22.17;14.93;;;;;;;14.85;62.26;101472.66;4994009;28;20101;-66
2023/06/17 02:57:09;;;;;;;23.23;14.68;;;;;;;14.81;63.49;101481.69;4993206;28;20034;-66
2023/06/17 02:59:36;;;;;;;24.33;14.98;;;;;;;14.77;62.66;101468.72;4993935;28;20046;-67
2023/06/17 03:02:01;;;;;;;23.75;15.88;;;;;;;14.65;64.50;101470.09;4993736;28;20126;-66
2023/06/17 03:04:34;;;;;;;22.38;14.65;;;;;;;14.68;62.53;101471.44;4993872;28;20022;-66
2023/06/17 03:07:04;;;;;;;23.40;15.35;;;;;;;14.71;62.61;101470.81;4993921;28;20037;-66
2023/06/17 03:09:30;;;;;;;23.70;15.50;;;;;;;14.73;63.01;101470.47;4993741;28;20537;-66
2023/06/17 03:11:55;;;;;;;26.42;16.08;;;;;;;14.68;64.22;101474.22;4993712;28;20027;-67
2023/06/17 03:14:20;;;;;;;25.90;16.80;;;;;;;14.62;64.93;101476.28;4993363;28;20077;-66
2023/06/17 03:16:46;;;;;;;23.95;15.63;;;;;;;14.58;65.12;101469.72;4993442;28;20105;-66
2023/06/17 03:19:11;;;;;;;27.65;15.65;;;;;;;14.51;65.76;101472.97;4993678;28;20034;-66
2023/06/17 03:21:40;;;;;;;23.20;15.10;;;;;;;14.50;64.86;101467.69;4993692;28;20080;-66
2023/06/17 03:24:06;;;;;;;25.75;15.93;;;;;;;14.50;65.71;101476.03;4993608;28;20069;-66
2023/06/17 03:26:32;;;;;;;25.40;16.25;;;;;;;14.48;65.59;101468.00;4993633;28;20117;-66
2023/06/17 03:28:57;;;;;;;24.88;15.68;;;;;;;14.46;65.67;101470.28;4993796;28;20536;-66
2023/06/17 03:31:23;;;;;;;24.67;15.88;;;;;;;14.45;65.93;101465.03;4993360;28;20026;-66
2023/06/17 03:33:52;;;;;;;25.58;16.73;;;;;;;14.34;67.40;101464.50;4993348;28;20796;-66
2023/06/17 03:36:18;;;;;;;25.05;16.73;;;;;;;14.31;67.38;101471.50;4991932;28;20498;-66
2023/06/17 03:38:44;;;;;;;23.30;15.55;;;;;;;14.28;67.63;101462.97;4993344;28;20026;-66
2023/06/17 03:41:10;;;;;;;25.02;16.40;;;;;;;14.29;67.07;101459.88;4993027;28;20408;-66
2023/06/17 03:43:35;;;;;;;24.85;16.30;;;;;;;14.32;67.29;101466.75;4992957;28;20035;-66
2023/06/17 03:46:01;;;;;;;25.13;16.88;;;;;;;14.44;67.47;101460.63;4993011;28;20042;-66
2023/06/17 03:48:26;;;;;;;24.70;17.00;;;;;;;14.87;66.51;101454.50;4992902;28;20027;-66
2023/06/17 03:50:52;;;;;;;24.70;16.67;;;;;;;15.38;64.03;101455.03;4992939;28;20022;-66
2023/06/17 03:53:17;;;;;;;27.27;17.42;;;;;;;15.83;62.95;101451.13;4991598;28;20034;-66
2023/06/17 03:55:43;;;;;;;23.42;16.13;;;;;;;16.21;60.96;101447.69;4992755;28;20499;-66
2023/06/17 03:58:08;;;;;;;23.92;17.27;;;;;;;16.48;60.56;101458.84;4991370;28;20026;-66
2023/06/17 04:00:35;;;;;;;26.98;17.27;;;;;;;16.29;61.27;101457.22;4992739;28;20336;-66
2023/06/17 04:03:00;;;;;;;25.92;17.83;;;;;;;15.85;62.60;101451.66;4991574;28;20027;-66
2023/06/17 04:05:32;;;;;;;24.60;17.00;;;;;;;15.47;64.17;101455.03;4991436;28;20030;-66
2023/06/17 04:07:59;;;;;;;26.27;17.67;;;;;;;15.20;64.92;101467.25;4992418;28;20037;-66
2023/06/17 04:10:25;;;;;;;26.20;18.05;;;;;;;15.05;65.96;101471.31;4992681;28;20105;-66
2023/06/17 04:12:51;;;;;;;25.45;18.23;;;;;;;14.94;67.11;101462.38;4992525;28;20046;-66
2023/06/17 04:15:16;;;;;;;27.40;18.58;;;;;;;14.92;66.49;101465.50;4992596;28;20037;-66
2023/06/17 04:17:41;;;;;;;28.20;19.58;;;;;;;14.84;67.60;101462.66;4992653;28;20124;-66
2023/06/17 04:20:10;;;;;;;26.63;19.02;;;;;;;14.90;66.93;101461.41;4991288;28;20027;-66
2023/06/17 04:22:40;;;;;;;26.25;20.30;;;;;;;14.90;67.52;101462.22;4992611;28;20026;-66
2023/06/17 04:25:07;;;;;;;28.83;20.50;;;;;;;15.00;67.10;101460.28;4992629;28;20030;-66
2023/06/17 04:27:32;;;;;;;27.42;19.75;;;;;;;15.05;66.74;101460.16;4992145;28;20031;-65
2023/06/17 04:29:57;;;;;;;27.83;20.10;;;;;;;15.13;66.38;101470.50;4992566;28;20101;-66
2023/06/17 04:32:25;;;;;;;29.55;20.77;;;;;;;15.11;66.64;101458.84;4992464;28;20050;-66
2023/06/17 04:34:51;;;;;;;30.85;21.83;;;;;;;15.07;67.87;101463.41;4992342;28;20428;-66
2023/06/17 04:37:16;;;;;;;29.45;20.10;;;;;;;15.00;68.23;101463.91;4992495;28;20089;-66
2023/06/17 04:39:42;;;;;;;30.23;21.23;;;;;;;14.97;68.66;101459.78;4992319;28;20052;-66
2023/06/17 04:42:12;;;;;;;29.48;22.10;;;;;;;14.96;69.24;101460.94;4992168;28;20461;-66
2023/06/17 04:44:38;;;;;;;28.05;21.13;;;;;;;15.06;68.28;101462.59;4992214;28;20056;-66
2023/06/17 04:47:10;;;;;;;31.65;20.98;;;;;;;15.20;69.31;101467.25;4992330;28;20041;-66
2023/06/17 04:49:38;;;;;;;29.30;21.02;;;;;;;15.26;68.83;101450.03;4992452;28;20045;-66
2023/06/17 04:52:13;;;;;;;30.02;21.02;;;;;;;15.31;69.40;101467.78;4992296;28;20073;-66
2023/06/17 04:54:39;;;;;;;28.45;21.08;;;;;;;15.39;69.78;101466.97;4992162;28;20038;-66
2023/06/17 04:57:05;;;;;;;29.80;21.45;;;;;;;15.45;69.82;101468.47;4992618;28;20076;-66
2023/06/17 04:59:31;;;;;;;31.95;22.10;;;;;;;15.57;69.24;101465.06;4992392;28;20053;-66
2023/06/17 05:01:56;;;;;;;29.23;21.40;;;;;;;15.65;69.01;101469.84;4990962;28;20482;-66
2023/06/17 05:04:21;;;;;;;30.05;21.80;;;;;;;15.69;69.75;101465.22;4992493;28;20030;-66
2023/06/17 05:06:47;;;;;;;28.13;20.55;;;;;;;15.80;68.80;101467.69;4992117;28;20431;-66
2023/06/17 05:09:12;;;;;;;30.45;21.40;;;;;;;15.88;69.56;101472.50;4992309;28;20331;-66
2023/06/17 05:11:42;;;;;;;28.70;21.02;;;;;;;16.01;69.16;101468.75;4990791;28;20486;-66
2023/06/17 05:14:08;;;;;;;29.13;20.63;;;;;;;16.10;69.23;101474.34;4992458;28;20510;-66
2023/06/17 05:16:33;;;;;;;27.13;20.10;;;;;;;16.17;69.09;101474.66;4992280;28;20030;-66
2023/06/17 05:18:58;;;;;;;28.20;21.10;;;;;;;16.25;69.09;101469.38;4992411;28;20423;-66
2023/06/17 05:21:24;;;;;;;27.80;20.55;;;;;;;16.30;69.23;101475.63;4994628;28;20026;-66
2023/06/17 05:23:50;;;;;;;27.20;19.63;;;;;;;16.41;68.47;101470.50;4995911;28;20076;-66
2023/06/17 05:26:15;;;;;;;27.63;19.70;;;;;;;16.49;68.77;101468.84;4996197;28;20062;-66
2023/06/17 05:28:41;;;;;;;25.42;19.58;;;;;;;16.54;68.34;101471.47;4995647;28;20078;-66
2023/06/17 05:31:06;;;;;;;27.27;19.40;;;;;;;16.64;68.51;101473.91;4995883;28;20389;-66
2023/06/17 05:33:32;;;;;;;26.20;18.83;;;;;;;16.62;68.64;101470.66;4995730;28;20018;-66
2023/06/17 05:36:00;;;;;;;25.63;19.35;;;;;;;16.75;68.20;101473.56;4995820;28;20029;-67
2023/06/17 05:38:28;;;;;;;26.88;20.35;;;;;;;16.84;68.03;101465.97;4994314;28;20042;-68
2023/06/17 05:40:54;;;;;;;27.85;20.80;;;;;;;16.90;68.18;101473.03;4995707;28;20026;-66
2023/06/17 05:43:19;;;;;;;25.60;18.45;;;;;;;16.98;68.64;101474.16;4995688;28;20529;-66
2023/06/17 05:45:45;;;;;;;26.27;17.88;;;;;;;17.04;68.41;101467.25;4995613;28;20058;-66
2023/06/17 05:48:10;;;;;;;28.20;19.52;;;;;;;17.11;68.69;101467.53;4995357;28;20113;-66
2023/06/17 05:50:35;;;;;;;25.08;18.27;;;;;;;17.23;68.45;101472.41;4995349;28;20110;-66
2023/06/17 05:53:01;;;;;;;28.20;19.23;;;;;;;17.31;68.59;101474.34;4995358;28;20552;-66
2023/06/17 05:55:27;;;;;;;27.08;19.52;;;;;;;17.43;67.73;101467.22;4995274;28;20486;-66
2023/06/17 05:57:52;;;;;;;26.80;19.65;;;;;;;17.52;67.52;101470.78;4995151;28;20030;-66
2023/06/17 06:00:18;;;;;;;26.48;19.60;;;;;;;17.55;67.34;101467.31;4995291;28;20169;-66
2023/06/17 06:02:44;;;;;;;27.23;20.20;;;;;;;17.67;67.25;101471.31;4995227;28;20034;-66
2023/06/17 06:05:09;;;;;;;26.55;18.50;;;;;;;17.77;66.56;101482.13;4995342;28;20022;-66
2023/06/17 06:07:35;;;;;;;28.08;18.80;;;;;;;17.73;66.55;101481.19;4993697;28;20120;-66
2023/06/17 06:10:03;;;;;;;27.20;19.60;;;;;;;17.77;66.47;101476.53;4995181;28;20023;-66
2023/06/17 06:12:29;;;;;;;30.05;20.42;;;;;;;17.86;66.42;101487.66;4995159;28;20026;-66
2023/06/17 06:14:55;;;;;;;26.23;19.25;;;;;;;17.93;66.69;101482.34;4993640;28;20490;-66
2023/06/17 06:17:20;;;;;;;26.65;19.15;;;;;;;18.04;65.71;101475.19;4995057;28;20034;-66
2023/06/17 06:19:46;;;;;;;26.67;19.10;;;;;;;18.17;64.92;101478.06;4994942;28;20050;-66
2023/06/17 06:22:11;;;;;;;26.35;18.95;;;;;;;18.27;64.66;101482.41;4993411;28;20053;-66
2023/06/17 06:24:36;;;;;;;27.00;20.13;;;;;;;18.34;64.73;101483.50;4994832;28;20393;-66
2023/06/17 06:27:02;;;;;;;27.52;19.70;;;;;;;18.48;63.85;101476.78;4994553;28;20370;-66
2023/06/17 06:29:27;;;;;;;25.10;18.23;;;;;;;18.55;62.77;101474.25;4994642;28;20062;-66
2023/06/17 06:31:52;;;;;;;27.70;18.98;;;;;;;18.62;62.84;101476.47;4994558;28;20052;-66
2023/06/17 06:34:17;;;;;;;26.42;18.20;;;;;;;18.65;62.27;101482.22;4994739;28;20033;-66
2023/06/17 06:36:43;;;;;;;25.70;18.88;;;;;;;18.75;62.45;101477.34;4994612;28;20026;-66
2023/06/17 06:39:08;;;;;;;26.60;18.88;;;;;;;18.83;62.31;101474.41;4994729;28;20113;-66
2023/06/17 06:41:33;;;;;;;25.98;18.08;;;;;;;18.93;60.75;101483.56;4994567;28;20036;-67
2023/06/17 06:43:58;;;;;;;25.25;17.60;;;;;;;19.02;60.58;101481.47;4994576;28;20019;-67
2023/06/17 06:46:24;;;;;;;28.65;18.38;;;;;;;19.00;60.07;101483.81;4994374;28;20033;-67
2023/06/17 06:48:49;;;;;;;25.00;17.40;;;;;;;19.14;59.60;101483.47;4994351;28;20054;-67
2023/06/17 06:51:15;;;;;;;24.95;17.88;;;;;;;19.18;59.12;101481.63;4994278;28;20026;-67
2023/06/17 06:53:40;;;;;;;25.83;17.27;;;;;;;19.23;56.74;101486.97;4994320;28;20033;-67
2023/06/17 06:56:05;;;;;;;24.45;16.30;;;;;;;19.37;55.99;101483.03;4994317;28;20092;-67
2023/06/17 06:58:32;;;;;;;24.60;16.88;;;;;;;19.37;55.29;101472.59;4994127;28;20452;-67
2023/06/17 07:00:58;;;;;;;24.95;16.88;;;;;;;19.50;54.52;101476.25;4994175;28;20030;-66
2023/06/17 07:03:23;;;;;;;24.80;17.42;;;;;;;19.51;53.24;101480.66;4992781;28;20363;-67
2023/06/17 07:05:48;;;;;;;26.65;18.15;;;;;;;19.60;55.02;101477.75;4993969;28;20026;-67
2023/06/17 07:08:14;;;;;;;24.60;17.20;;;;;;;19.70;52.27;101477.25;4994033;28;20030;-67
2023/06/17 07:10:39;;;;;;;24.13;16.15;;;;;;;19.85;51.37;101475.75;4994044;28;20105;-67
2023/06/17 07:13:06;;;;;;;25.80;18.05;;;;;;;19.91;51.77;101477.13;4993897;28;20048;-67
2023/06/17 07:15:31;;;;;;;24.75;17.30;;;;;;;19.97;51.16;101474.88;4993889;28;20030;-67
2023/06/17 07:17:57;;;;;;;24.67;18.17;;;;;;;20.10;51.82;101465.25;4993763;28;20034;-67
2023/06/17 07:20:22;;;;;;;24.85;17.45;;;;;;;20.17;51.49;101478.66;4993712;28;20030;-67
2023/06/17 07:22:47;;;;;;;26.15;18.90;;;;;;;20.21;51.27;101468.34;4993715;28;20034;-67
2023/06/17 07:25:13;;;;;;;24.80;17.10;;;;;;;20.40;50.31;101475.31;4993685;28;20854;-67
2023/06/17 07:27:38;;;;;;;26.10;17.67;;;;;;;20.53;50.09;101470.44;4993370;28;20049;-67
2023/06/17 07:30:05;;;;;;;26.08;17.80;;;;;;;20.72;49.92;101475.38;4993611;28;20137;-67
2023/06/17 07:32:30;;;;;;;25.17;17.10;;;;;;;20.77;48.42;101475.13;4993471;28;20045;-67
2023/06/17 07:34:56;;;;;;;26.38;17.30;;;;;;;20.89;48.39;101479.84;4993239;28;20402;-67
2023/06/17 07:37:21;;;;;;;25.55;16.58;;;;;;;20.97;46.84;101469.59;4993375;28;20060;-67
2023/06/17 07:39:47;;;;;;;24.42;16.38;;;;;;;20.95;45.24;101474.78;4993278;28;20029;-67
2023/06/17 07:42:15;;;;;;;24.55;16.00;;;;;;;20.94;45.32;101470.31;4993364;28;20105;-67
2023/06/17 07:44:40;;;;;;;23.58;16.60;;;;;;;20.94;45.53;101473.97;4992939;28;20118;-67
2023/06/17 07:47:06;;;;;;;22.00;14.38;;;;;;;21.05;44.20;101471.41;4991888;28;20125;-67
2023/06/17 07:49:33;;;;;;;23.75;14.80;;;;;;;21.16;42.81;101468.88;4993177;28;20474;-67
2023/06/17 07:51:58;;;;;;;23.23;15.05;;;;;;;21.30;42.87;101469.22;4993363;28;20030;-67
2023/06/17 07:54:24;;;;;;;22.48;14.35;;;;;;;21.48;42.42;101471.63;4993214;28;20041;-67
2023/06/17 07:56:50;;;;;;;24.52;15.48;;;;;;;21.50;42.19;101467.28;4993222;28;20033;-67
2023/06/17 07:59:15;;;;;;;22.40;14.80;;;;;;;21.67;42.79;101462.47;4993212;28;20466;-67
2023/06/17 08:01:40;;;;;;;23.17;15.73;;;;;;;21.82;42.79;101460.78;4993239;28;20030;-67
2023/06/17 08:04:05;;;;;;;22.77;14.52;;;;;;;21.96;42.97;101463.91;4993054;28;20041;-67
2023/06/17 08:06:31;;;;;;;23.27;15.18;;;;;;;22.05;41.76;101463.69;4993034;28;20113;-67
2023/06/17 08:08:56;;;;;;;23.70;14.38;;;;;;;22.14;42.40;101455.00;4993336;28;20022;-67
2023/06/17 08:11:21;;;;;;;21.55;14.80;;;;;;;22.15;41.01;101453.81;4993090;28;20118;-67
2023/06/17 08:13:47;;;;;;;24.08;15.52;;;;;;;22.11;40.62;101462.19;4992988;28;20034;-67
2023/06/17 08:16:12;;;;;;;25.13;15.80;;;;;;;22.04;41.13;101452.78;4993020;28;20109;-67
2023/06/17 08:18:37;;;;;;;24.35;15.20;;;;;;;22.03;41.46;101454.78;4993024;28;20541;-66
2023/06/17 08:21:02;;;;;;;23.73;14.85;;;;;;;22.21;41.33;101451.50;4992987;28;20022;-66
2023/06/17 08:23:28;;;;;;;21.90;13.48;;;;;;;22.37;40.11;101446.59;4993346;28;20026;-66
2023/06/17 08:25:53;;;;;;;21.10;12.95;;;;;;;22.56;38.43;101450.59;4993516;28;20049;-66
2023/06/17 08:28:19;;;;;;;20.23;12.13;;;;;;;22.70;38.38;101452.84;4992866;28;20457;-66
2023/06/17 08:30:44;;;;;;;22.13;12.48;;;;;;;22.79;36.54;101458.25;4993045;28;20046;-67
2023/06/17 08:33:09;;;;;;;20.92;12.52;;;;;;;22.75;36.06;101456.19;4991605;28;20334;-66
2023/06/17 08:35:35;;;;;;;19.55;12.07;;;;;;;22.79;35.80;101458.25;4991560;28;20471;-66
2023/06/17 08:38:01;;;;;;;20.77;11.65;;;;;;;22.94;36.10;101443.22;4993098;28;20102;-67
2023/06/17 08:40:27;;;;;;;20.13;11.55;;;;;;;23.17;35.78;101448.03;4991462;28;20402;-67
2023/06/17 08:43:02;;;;;;;21.58;12.32;;;;;;;23.18;34.65;101449.66;4992788;28;20467;-67
2023/06/17 08:45:27;;;;;;;20.00;12.27;;;;;;;23.34;35.59;101441.88;4992693;28;20030;-67
2023/06/17 08:47:52;;;;;;;19.90;11.63;;;;;;;23.29;35.11;101447.03;4992528;28;20429;-66
2023/06/17 08:50:18;;;;;;;20.30;12.13;;;;;;;23.30;34.70;101455.09;4992612;28;20045;-67
2023/06/17 08:52:45;;;;;;;18.92;11.38;;;;;;;23.47;34.08;101456.56;4992639;28;20065;-66
2023/06/17 08:55:11;;;;;;;20.70;11.05;;;;;;;23.70;33.68;101450.03;4993167;28;20026;-67
2023/06/17 08:57:36;;;;;;;22.15;12.15;;;;;;;23.80;33.82;101440.91;4996871;28;20057;-67
2023/06/17 09:00:03;;;;;;;21.40;12.18;;;;;;;23.87;34.35;101442.97;4996786;28;20172;-66
2023/06/17 09:02:32;;;;;;;21.00;13.15;;;;;;;23.78;34.05;101440.47;4996315;28;20031;-68
2023/06/17 09:04:58;;;;;;;24.83;13.10;;;;;;;23.82;34.73;101444.13;4995043;28;20035;-66
2023/06/17 09:07:24;;;;;;;22.52;12.93;;;;;;;24.01;34.06;101450.06;4996121;28;20022;-67
2023/06/17 09:09:56;;;;;;;22.08;12.93;;;;;;;24.11;34.52;101450.19;4996364;28;20030;-66
2023/06/17 09:12:24;;;;;;;23.30;13.73;;;;;;;24.19;33.70;101441.78;4996200;28;20060;-66
2023/06/17 09:14:53;;;;;;;21.85;12.68;;;;;;;24.25;33.54;101445.91;4996204;28;20062;-67
2023/06/17 09:17:27;;;;;;;22.52;12.43;;;;;;;24.40;34.11;101441.22;4996128;28;20454;-67
2023/06/17 09:19:53;;;;;;;20.20;11.73;;;;;;;24.50;33.58;101445.34;4996186;28;20114;-67
2023/06/17 09:22:20;;;;;;;21.55;12.50;;;;;;;24.56;33.54;101441.00;4996140;28;20080;-67
2023/06/17 09:24:46;;;;;;;21.38;12.38;;;;;;;24.52;33.27;101431.63;4996162;28;20029;-67
2023/06/17 09:27:21;;;;;;;21.13;10.77;;;;;;;24.44;32.64;101442.88;4995911;28;20057;-67
2023/06/17 09:29:48;;;;;;;18.98;11.02;;;;;;;24.48;32.68;101437.25;4994679;28;20060;-67
2023/06/17 09:32:13;;;;;;;18.90;10.40;;;;;;;24.68;32.44;101443.53;4996072;28;20022;-68
2023/06/17 09:34:47;;;;;;;19.15;10.23;;;;;;;24.71;32.11;101437.13;4995863;28;20022;-67
2023/06/17 09:37:15;;;;;;;19.90;10.25;;;;;;;24.62;31.62;101442.25;4995837;28;20033;-67
2023/06/17 09:39:44;;;;;;;19.25;10.20;;;;;;;24.61;31.91;101447.06;4995914;28;20549;-67
2023/06/17 09:42:10;;;;;;;17.95;9.70;;;;;;;24.64;31.97;101436.19;4995630;28;20034;-67
2023/06/17 09:44:40;;;;;;;19.83;10.88;;;;;;;24.73;32.52;101437.53;4995919;28;20049;-67
2023/06/17 09:47:06;;;;;;;19.75;10.18;;;;;;;24.96;33.10;101438.53;4995675;28;20029;-67
2023/06/17 09:49:33;;;;;;;19.30;10.00;;;;;;;25.28;32.83;101437.94;4995648;28;20110;-67
2023/06/17 09:52:02;;;;;;;19.08;10.38;;;;;;;25.23;31.88;101437.13;4995613;28;20053;-67
2023/06/17 09:54:29;;;;;;;18.75;9.85;;;;;;;25.37;32.45;101429.91;4995449;28;20069;-67
2023/06/17 09:56:56;;;;;;;21.85;11.00;;;;;;;25.40;32.18;101422.72;4995497;28;20023;-67
2023/06/17 09:59:21;;;;;;;18.98;11.00;;;;;;;25.22;32.37;101432.66;4995421;28;20085;-67
2023/06/17 10:01:48;;;;;;;19.77;10.52;;;;;;;25.32;33.08;101422.59;4995431;28;20022;-67
2023/06/17 10:04:14;;;;;;;17.83;10.32;;;;;;;25.42;32.41;101426.75;4995445;28;20026;-68
2023/06/17 10:06:41;;;;;;;21.67;11.07;;;;;;;25.49;32.86;101434.50;4993664;28;20034;-67
2023/06/17 10:09:08;;;;;;;20.55;11.43;;;;;;;25.26;33.49;101435.53;4995168;28;20398;-67
2023/06/17 10:11:35;;;;;;;18.30;10.23;;;;;;;25.12;32.15;101435.44;4995165;28;20109;-67
2023/06/17 10:14:23;;;;;;;19.92;10.48;;;;;;;25.29;33.23;101425.41;4995237;28;20093;-67
2023/06/17 10:16:50;;;;;;;18.95;10.07;;;;;;;25.36;32.32;101429.13;4995212;28;20031;-67
2023/06/17 10:19:20;;;;;;;19.20;10.10;;;;;;;25.56;33.12;101423.19;4995099;28;20037;-67
2023/06/17 10:21:50;;;;;;;18.15;9.15;;;;;;;25.70;32.48;101420.44;4994978;28;20120;-68
2023/06/17 10:24:16;;;;;;;18.88;9.80;;;;;;;25.79;30.94;101419.28;4995094;28;20038;-68
2023/06/17 10:26:42;;;;;;;17.52;9.35;;;;;;;26.05;30.80;101423.81;4995005;28;20050;-67
2023/06/17 10:29:10;;;;;;;19.52;10.27;;;;;;;26.34;31.39;101414.63;4994581;28;20168;-67
2023/06/17 10:31:40;;;;;;;19.75;11.15;;;;;;;26.37;31.42;101406.13;4994802;28;20497;-68
2023/06/17 10:34:08;;;;;;;19.67;11.18;;;;;;;26.37;31.44;101413.78;4994625;28;20028;-68
2023/06/17 10:36:35;;;;;;;19.25;10.57;;;;;;;26.31;31.65;101416.22;4994600;28;20030;-68
2023/06/17 10:39:10;;;;;;;19.50;10.50;;;;;;;26.20;31.72;101413.34;4995187;28;20042;-68
2023/06/17 10:41:38;;;;;;;18.88;10.10;;;;;;;26.39;31.57;101398.00;4994615;28;20054;-68
2023/06/17 10:44:26;;;;;;;19.10;10.27;;;;;;;26.29;31.77;101402.44;4994719;28;20037;-69
2023/06/17 10:46:52;;;;;;;17.83;9.48;;;;;;;26.27;31.09;101401.22;4994514;28;20027;-68
2023/06/17 10:49:18;;;;;;;18.73;9.98;;;;;;;26.25;31.01;101398.81;4994464;28;20038;-69
2023/06/17 10:51:51;;;;;;;18.60;9.80;;;;;;;26.12;30.75;101395.50;4994445;28;20026;-68
2023/06/17 10:54:35;;;;;;;19.02;9.50;;;;;;;26.41;30.32;101398.41;4994530;28;20038;-68
2023/06/17 10:57:01;;;;;;;;;;;;;;;26.70;30.09;101406.16;4994606;28;20121;-68
2023/06/17 10:59:31;;;;;;;19.35;10.15;;;;;;;26.51;30.31;101393.16;4994457;28;19914;-68
2023/06/17 11:02:01;;;;;;;19.02;9.95;;;;;;;26.48;30.64;101389.09;4994152;28;20181;-69
2023/06/17 11:04:34;;;;;;;19.52;10.68;;;;;;;26.60;30.38;101387.88;4994169;28;20497;-68
2023/06/17 11:07:00;;;;;;;19.13;10.30;;;;;;;26.76;30.22;101391.16;4994056;28;20482;-68